createdAt,value
2023-01-17T00:01:30.510Z,96660.59
2023-01-17T00:04:15.489Z,96658.81
2023-01-17T00:07:00.466Z,96663.22
2023-01-17T00:09:45.280Z,96666.06
2023-01-17T00:12:11.798Z,96664.63
2023-01-17T00:14:38.142Z,96655.16
2023-01-17T00:17:04.601Z,96653.50
2023-01-17T00:19:49.816Z,96653.13
2023-01-17T00:22:41.069Z,96656.31
2023-01-17T00:25:30.171Z,96659.53
2023-01-17T00:27:56.588Z,96668.16
2023-01-17T00:30:23.322Z,96665.41
2023-01-17T00:32:49.813Z,96667.66
2023-01-17T00:35:16.676Z,96666.81
2023-01-17T00:37:43.118Z,96657.25
2023-01-17T00:40:10.334Z,96664.06
2023-01-17T00:42:36.800Z,96659.19
2023-01-17T00:45:22.881Z,96672.47
2023-01-17T00:48:07.905Z,96673.50
2023-01-17T00:50:55.732Z,96677.72
2023-01-17T00:53:40.462Z,96662.84
2023-01-17T00:56:25.830Z,96671.16
2023-01-17T00:59:12.613Z,96674.19
2023-01-17T01:01:57.839Z,96670.41
2023-01-17T01:04:43.107Z,96676.00
2023-01-17T01:07:28.015Z,96672.22
2023-01-17T01:10:12.823Z,96680.97
2023-01-17T01:12:57.677Z,96676.56
2023-01-17T01:15:42.528Z,96675.56
2023-01-17T01:18:28.353Z,96676.16
2023-01-17T01:21:13.254Z,96684.66
2023-01-17T01:23:57.954Z,96681.03
2023-01-17T01:26:42.691Z,96682.25
2023-01-17T01:29:27.395Z,96682.84
2023-01-17T01:32:12.053Z,96681.22
2023-01-17T01:34:38.462Z,96688.31
2023-01-17T01:37:04.839Z,96681.03
2023-01-17T01:39:31.187Z,96677.59
2023-01-17T01:41:57.580Z,96678.22
2023-01-17T01:44:48.541Z,96668.69
2023-01-17T01:47:28.820Z,96682.66
2023-01-17T01:49:55.486Z,96679.44
2023-01-17T01:52:26.060Z,96673.75
2023-01-17T01:54:57.912Z,96668.91
2023-01-17T01:57:29.539Z,96662.06
2023-01-17T01:59:59.730Z,96672.53
2023-01-17T02:02:28.205Z,96666.88
2023-01-17T02:04:54.602Z,96674.56
2023-01-17T02:07:44.634Z,96665.22
2023-01-17T02:10:12.715Z,96676.16
2023-01-17T02:12:39.854Z,96683.03
2023-01-17T02:15:07.523Z,96672.31
2023-01-17T02:17:52.908Z,96677.16
2023-01-17T02:20:32.980Z,96674.94
2023-01-17T02:23:15.613Z,96680.41
2023-01-17T02:26:03.850Z,96675.34
2023-01-17T02:28:42.289Z,96686.25
2023-01-17T02:31:17.675Z,96681.16
2023-01-17T02:33:57.199Z,96676.75
2023-01-17T02:36:29.647Z,96683.81
2023-01-17T02:39:08.235Z,96678.97
2023-01-17T02:41:40.668Z,96694.94
2023-01-17T02:44:10.151Z,96686.66
2023-01-17T02:46:48.194Z,96666.41
2023-01-17T02:49:17.949Z,96691.50
2023-01-17T02:52:12.372Z,96706.44
2023-01-17T02:54:47.613Z,96701.97
2023-01-17T02:57:33.030Z,96703.00
2023-01-17T03:00:18.299Z,96705.00
2023-01-17T03:02:50.806Z,96712.06
2023-01-17T03:05:31.332Z,96711.44
2023-01-17T03:07:59.264Z,96722.78
2023-01-17T03:10:25.838Z,96729.47
2023-01-17T03:12:57.769Z,96720.94
2023-01-17T03:15:24.280Z,96721.34
2023-01-17T03:17:53.110Z,96733.09
2023-01-17T03:20:22.265Z,96737.53
2023-01-17T03:22:48.906Z,96725.78
2023-01-17T03:25:16.339Z,96729.00
2023-01-17T03:27:42.706Z,96732.69
2023-01-17T03:30:09.870Z,96746.78
2023-01-17T03:32:36.252Z,96737.09
2023-01-17T03:35:02.653Z,96756.72
2023-01-17T03:37:29.028Z,96750.88
2023-01-17T03:39:55.380Z,96758.50
2023-01-17T03:42:21.739Z,96761.78
2023-01-17T03:44:48.344Z,96758.75
2023-01-17T03:47:14.771Z,96757.75
2023-01-17T03:49:41.198Z,96769.66
2023-01-17T03:52:07.615Z,96767.81
2023-01-17T03:54:34.171Z,96763.59
2023-01-17T03:57:00.598Z,96770.66
2023-01-17T03:59:26.981Z,96775.53
2023-01-17T04:01:53.518Z,96788.69
2023-01-17T04:04:19.894Z,96780.38
2023-01-17T04:06:47.968Z,96771.91
2023-01-17T04:09:14.377Z,96783.22
2023-01-17T04:11:40.745Z,96799.81
2023-01-17T04:14:07.102Z,96789.09
2023-01-17T04:16:33.769Z,96797.00
2023-01-17T04:19:00.216Z,96786.47
2023-01-17T04:21:26.570Z,96801.06
2023-01-17T04:23:53.643Z,96810.56
2023-01-17T04:26:20.388Z,96792.56
2023-01-17T04:28:46.803Z,96811.19
2023-01-17T04:31:15.686Z,96821.47
2023-01-17T04:33:42.240Z,96814.00
2023-01-17T04:36:08.967Z,96812.41
2023-01-17T04:38:35.311Z,96828.59
2023-01-17T04:41:01.939Z,96827.75
2023-01-17T04:43:28.330Z,96820.88
2023-01-17T04:45:58.907Z,96839.09
2023-01-17T04:48:25.348Z,96849.00
2023-01-17T04:50:51.763Z,96850.00
2023-01-17T04:53:18.136Z,96854.25
2023-01-17T04:55:47.505Z,96854.25
2023-01-17T04:58:14.092Z,96862.56
2023-01-17T05:00:40.525Z,96847.19
2023-01-17T05:03:07.221Z,96870.44
2023-01-17T05:05:33.707Z,96867.19
2023-01-17T05:08:00.272Z,96873.88
2023-01-17T05:10:27.092Z,96877.72
2023-01-17T05:12:55.120Z,96883.38
2023-01-17T05:15:21.891Z,96893.31
2023-01-17T05:17:48.263Z,96885.81
2023-01-17T05:20:14.649Z,96888.03
2023-01-17T05:22:41.047Z,96894.50
2023-01-17T05:25:07.758Z,96902.81
2023-01-17T05:27:34.326Z,96895.91
2023-01-17T05:30:00.695Z,96901.38
2023-01-17T05:32:27.126Z,96902.81
2023-01-17T05:34:53.486Z,96890.47
2023-01-17T05:37:20.749Z,96899.38
2023-01-17T05:39:47.097Z,96899.19
2023-01-17T05:42:13.592Z,96885.59
2023-01-17T05:44:40.578Z,96910.50
2023-01-17T05:47:07.060Z,96909.88
2023-01-17T05:49:33.452Z,96920.81
2023-01-17T05:51:59.832Z,96892.69
2023-01-17T05:54:26.193Z,96914.75
2023-01-17T05:56:52.569Z,96909.44
2023-01-17T05:59:32.268Z,96914.13
2023-01-17T06:02:02.743Z,96906.63
2023-01-17T06:04:29.270Z,96919.56
2023-01-17T06:06:55.693Z,96917.16
2023-01-17T06:09:22.277Z,96930.69
2023-01-17T06:11:48.675Z,96925.66
2023-01-17T06:14:15.047Z,96934.94
2023-01-17T06:16:41.538Z,96942.00
2023-01-17T06:19:09.452Z,96937.56
2023-01-17T06:21:35.841Z,96952.31
2023-01-17T06:24:04.098Z,96926.44
2023-01-17T06:26:30.708Z,96943.00
2023-01-17T06:28:57.094Z,96940.59
2023-01-17T06:31:23.451Z,96940.56
2023-01-17T06:33:49.910Z,96957.09
2023-01-17T06:36:16.297Z,96941.34
2023-01-17T06:38:42.655Z,96955.28
2023-01-17T06:41:09.671Z,96958.75
2023-01-17T06:43:36.048Z,96951.84
2023-01-17T06:46:02.478Z,96949.44
2023-01-17T06:48:28.876Z,96968.25
2023-01-17T06:50:57.414Z,96964.78
2023-01-17T06:53:23.948Z,96959.50
2023-01-17T06:55:50.373Z,96955.88
2023-01-17T06:58:16.739Z,96975.06
2023-01-17T07:00:43.191Z,96971.22
2023-01-17T07:03:19.119Z,96986.22
2023-01-17T07:05:45.525Z,96991.84
2023-01-17T07:08:11.941Z,97003.59
2023-01-17T07:10:38.324Z,96992.44
2023-01-17T07:13:04.703Z,97000.16
2023-01-17T07:15:31.076Z,97006.75
2023-01-17T07:18:01.122Z,97019.50
2023-01-17T07:20:27.534Z,97014.84
2023-01-17T07:22:53.916Z,97014.41
2023-01-17T07:25:20.590Z,97026.00
2023-01-17T07:27:46.964Z,97018.44
2023-01-17T07:30:13.883Z,97022.47
2023-01-17T07:32:40.401Z,97015.56
2023-01-17T07:35:07.115Z,97010.72
2023-01-17T07:37:33.543Z,97006.72
2023-01-17T07:40:02.415Z,97013.13
2023-01-17T07:42:28.820Z,97011.09
2023-01-17T07:44:55.329Z,97005.03
2023-01-17T07:47:22.031Z,97017.59
2023-01-17T07:49:48.447Z,97024.69
2023-01-17T07:52:16.865Z,97022.22
2023-01-17T07:54:44.429Z,97032.50
2023-01-17T07:57:13.854Z,97026.47
2023-01-17T07:59:40.256Z,97034.53
2023-01-17T08:02:14.920Z,97052.72
2023-01-17T08:04:41.279Z,97045.03
2023-01-17T08:07:07.655Z,97049.03
2023-01-17T08:09:34.031Z,97044.53
2023-01-17T08:12:01.095Z,97035.66
2023-01-17T08:14:27.476Z,97029.88
2023-01-17T08:16:53.854Z,97041.34
2023-01-17T08:19:20.381Z,97035.66
2023-01-17T08:21:46.946Z,97040.91
2023-01-17T08:24:14.198Z,97041.78
2023-01-17T08:26:40.601Z,97049.41
2023-01-17T08:29:06.974Z,97059.50
2023-01-17T08:31:35.235Z,97070.41
2023-01-17T08:34:01.705Z,97072.66
2023-01-17T08:36:28.796Z,97078.88
2023-01-17T08:38:55.429Z,97087.78
2023-01-17T08:41:22.739Z,97080.53
2023-01-17T08:43:49.994Z,97094.69
2023-01-17T08:46:17.084Z,97084.25
2023-01-17T08:48:44.030Z,97089.50
2023-01-17T08:51:11.291Z,97103.66
2023-01-17T08:53:38.083Z,97123.44
2023-01-17T08:56:05.942Z,97099.63
2023-01-17T08:58:33.039Z,97089.50
2023-01-17T09:01:03.846Z,97096.06
2023-01-17T09:03:31.297Z,97100.69
2023-01-17T09:06:17.936Z,97105.88
2023-01-17T09:08:47.736Z,97102.22
2023-01-17T09:11:15.009Z,97100.88
2023-01-17T09:13:42.231Z,97125.50
2023-01-17T09:16:09.524Z,97120.72
2023-01-17T09:18:37.000Z,97133.25
2023-01-17T09:21:11.751Z,97135.63
2023-01-17T09:23:38.147Z,97132.47
2023-01-17T09:26:04.624Z,97126.38
2023-01-17T09:28:31.194Z,97134.13
2023-01-17T09:30:57.621Z,97132.72
2023-01-17T09:33:24.462Z,97136.75
2023-01-17T09:35:50.927Z,97144.63
2023-01-17T09:38:17.323Z,97126.44
2023-01-17T09:40:46.961Z,97149.25
2023-01-17T09:43:41.584Z,97136.56
2023-01-17T09:46:22.393Z,97147.97
2023-01-17T09:48:56.330Z,97164.50
2023-01-17T09:51:26.536Z,97146.25
2023-01-17T09:53:53.718Z,97155.94
2023-01-17T09:56:29.594Z,97154.41
2023-01-17T09:59:18.800Z,97168.09
2023-01-17T10:02:25.954Z,97162.78
2023-01-17T10:05:26.388Z,97173.47
2023-01-17T10:08:04.713Z,97175.00
2023-01-17T10:10:42.129Z,97169.56
2023-01-17T10:13:41.105Z,97175.06
2023-01-17T10:16:16.528Z,97167.44
2023-01-17T10:19:10.750Z,97164.81
2023-01-17T10:22:07.472Z,97155.47
2023-01-17T10:25:09.922Z,97155.47
2023-01-17T10:27:45.528Z,97172.22
2023-01-17T10:30:37.297Z,97167.34
2023-01-17T10:33:13.142Z,97161.25
2023-01-17T10:35:50.794Z,97174.69
2023-01-17T10:38:18.175Z,97191.63
2023-01-17T10:40:51.591Z,97185.13
2023-01-17T10:43:27.678Z,97186.75
2023-01-17T10:45:56.608Z,97191.00
2023-01-17T10:48:38.881Z,97191.59
2023-01-17T10:51:49.786Z,97191.19
2023-01-17T10:54:16.085Z,97187.38
2023-01-17T10:56:42.773Z,97195.41
2023-01-17T10:59:22.466Z,97202.44
2023-01-17T11:01:51.098Z,97211.94
2023-01-17T11:04:40.215Z,97211.69
2023-01-17T11:07:14.388Z,97209.84
2023-01-17T11:09:49.844Z,97212.31
2023-01-17T11:12:33.385Z,97210.09
2023-01-17T11:15:08.790Z,97212.31
2023-01-17T11:18:02.795Z,97206.63
2023-01-17T11:20:37.057Z,97204.44
2023-01-17T11:23:16.893Z,97209.44
2023-01-17T11:25:50.851Z,97203.53
2023-01-17T11:28:26.204Z,97197.19
2023-01-17T11:30:55.612Z,97192.00
2023-01-17T11:33:47.739Z,97196.03
2023-01-17T11:36:29.019Z,97191.53
2023-01-17T11:39:02.723Z,97185.03
2023-01-17T11:41:40.322Z,97191.28
2023-01-17T11:44:23.044Z,97188.28
2023-01-17T11:47:08.834Z,97198.41
2023-01-17T11:49:35.745Z,97186.75
2023-01-17T11:52:08.964Z,97194.38
2023-01-17T11:54:40.321Z,97194.63
2023-01-17T11:57:20.788Z,97185.13
2023-01-17T11:59:47.961Z,97190.44
2023-01-17T12:02:31.755Z,97198.13
2023-01-17T12:05:33.717Z,97192.63
2023-01-17T12:08:23.875Z,97184.03
2023-01-17T12:11:04.377Z,97203.38
2023-01-17T12:14:01.038Z,97195.28
2023-01-17T12:16:43.239Z,97194.09
2023-01-17T12:19:42.241Z,97205.47
2023-01-17T12:22:22.668Z,97196.97
2023-01-17T12:24:58.300Z,97192.94
2023-01-17T12:27:28.831Z,97194.16
2023-01-17T12:30:08.827Z,97198.56
2023-01-17T12:32:49.329Z,97198.34
2023-01-17T12:35:22.815Z,97212.00
2023-01-17T12:38:04.661Z,97189.59
2023-01-17T12:40:46.121Z,97195.66
2023-01-17T12:43:36.888Z,97206.03
2023-01-17T12:46:30.781Z,97200.66
2023-01-17T12:49:19.754Z,97195.97
2023-01-17T12:51:50.119Z,97201.03
2023-01-17T12:54:28.770Z,97191.91
2023-01-17T12:57:02.349Z,97200.03
2023-01-17T12:59:54.435Z,97196.41
2023-01-17T13:02:32.365Z,97190.69
2023-01-17T13:05:18.356Z,97195.91
2023-01-17T13:08:27.007Z,97190.66
2023-01-17T13:11:02.284Z,97195.09
2023-01-17T13:13:30.233Z,97210.69
2023-01-17T13:16:16.268Z,97205.66
2023-01-17T13:18:48.113Z,97208.91
2023-01-17T13:21:32.320Z,97212.59
2023-01-17T13:23:59.172Z,97213.31
2023-01-17T13:26:50.754Z,97213.69
2023-01-17T13:29:35.456Z,97221.34
2023-01-17T13:32:21.278Z,97236.22
2023-01-17T13:35:23.296Z,97232.22
2023-01-17T13:38:09.611Z,97231.97
2023-01-17T13:40:55.946Z,97242.94
2023-01-17T13:43:30.640Z,97240.47
2023-01-17T13:46:03.332Z,97241.09
2023-01-17T13:48:30.878Z,97245.97
2023-01-17T13:51:12.693Z,97248.06
2023-01-17T13:53:39.087Z,97245.22
2023-01-17T13:56:26.746Z,97245.16
2023-01-17T13:58:57.912Z,97246.34
2023-01-17T14:01:24.443Z,97245.72
2023-01-17T14:03:51.110Z,97247.16
2023-01-17T14:06:33.760Z,97248.84
2023-01-17T14:09:03.339Z,97249.84
2023-01-17T14:11:33.792Z,97253.09
2023-01-17T14:14:36.340Z,97249.66
2023-01-17T14:17:18.799Z,97250.66
2023-01-17T14:19:48.120Z,97252.84
2023-01-17T14:22:20.215Z,97262.72
2023-01-17T14:25:03.274Z,97258.97
2023-01-17T14:27:34.619Z,97253.84
2023-01-17T14:30:04.332Z,97264.97
2023-01-17T14:32:35.317Z,97247.97
2023-01-17T14:35:02.487Z,97246.34
2023-01-17T14:37:31.703Z,97243.47
2023-01-17T14:39:59.407Z,97243.47
2023-01-17T14:42:29.020Z,97243.59
2023-01-17T14:45:08.206Z,97245.47
2023-01-17T14:47:41.339Z,97259.47
2023-01-17T14:50:29.532Z,97273.63
2023-01-17T14:53:10.722Z,97264.66
2023-01-17T14:55:38.628Z,97260.84
2023-01-17T14:58:05.253Z,97262.59
2023-01-17T15:00:34.950Z,97261.97
2023-01-17T15:03:02.229Z,97271.41
2023-01-17T15:05:29.834Z,97275.22
2023-01-17T15:07:58.103Z,97275.00
2023-01-17T15:10:31.278Z,97265.19
2023-01-17T15:13:05.337Z,97263.56
2023-01-17T15:15:35.386Z,97282.03
2023-01-17T15:18:08.842Z,97277.16
2023-01-17T15:20:37.419Z,97276.88
2023-01-17T15:23:04.222Z,97281.41
2023-01-17T15:25:30.968Z,97275.63
2023-01-17T15:27:57.636Z,97285.13
2023-01-17T15:30:25.244Z,97273.31
2023-01-17T15:32:52.507Z,97275.28
2023-01-17T15:35:20.472Z,97276.63
2023-01-17T15:37:53.472Z,97287.31
2023-01-17T15:40:25.428Z,97292.94
2023-01-17T15:42:56.627Z,97291.56
2023-01-17T15:45:29.485Z,97283.25
2023-01-17T15:47:56.055Z,97288.03
2023-01-17T15:50:24.560Z,97288.41
2023-01-17T15:52:55.172Z,97291.69
2023-01-17T15:55:36.173Z,97295.91
2023-01-17T15:58:04.494Z,97291.31
2023-01-17T16:00:39.177Z,97294.91
2023-01-17T16:03:22.772Z,97286.88
2023-01-17T16:05:49.761Z,97285.41
2023-01-17T16:08:16.296Z,97290.59
2023-01-17T16:10:44.135Z,97289.31
2023-01-17T16:13:12.889Z,97285.41
2023-01-17T16:15:42.352Z,97294.47
2023-01-17T16:18:18.727Z,97289.56
2023-01-17T16:20:54.637Z,97295.28
2023-01-17T16:23:20.953Z,97296.44
2023-01-17T16:25:47.985Z,97288.78
2023-01-17T16:28:14.388Z,97287.47
2023-01-17T16:30:40.890Z,97282.34
2023-01-17T16:33:11.340Z,97286.13
2023-01-17T16:35:39.388Z,97289.31
2023-01-17T16:38:12.529Z,97288.41
2023-01-17T16:40:41.224Z,97284.25
2023-01-17T16:43:07.831Z,97280.25
2023-01-17T16:45:46.459Z,97283.59
2023-01-17T16:48:13.013Z,97281.72
2023-01-17T16:50:48.240Z,97285.69
2023-01-17T16:53:15.233Z,97277.00
2023-01-17T16:55:43.061Z,97273.91
2023-01-17T16:58:09.757Z,97269.03
2023-01-17T17:00:36.116Z,97265.78
2023-01-17T17:03:02.660Z,97275.66
2023-01-17T17:05:30.572Z,97260.91
2023-01-17T17:07:57.454Z,97269.13
2023-01-17T17:10:25.198Z,97278.06
2023-01-17T17:12:51.991Z,97271.56
2023-01-17T17:15:18.512Z,97261.78
2023-01-17T17:17:45.044Z,97270.19
2023-01-17T17:20:14.344Z,97270.13
2023-01-17T17:22:45.625Z,97270.84
2023-01-17T17:25:12.248Z,97263.06
2023-01-17T17:27:38.753Z,97265.75
2023-01-17T17:30:06.222Z,97266.44
2023-01-17T17:32:32.615Z,97269.78
2023-01-17T17:34:59.341Z,97276.53
2023-01-17T17:37:28.722Z,97289.19
2023-01-17T17:39:56.189Z,97286.75
2023-01-17T17:42:22.745Z,97295.31
2023-01-17T17:44:49.114Z,97290.94
2023-01-17T17:47:16.133Z,97293.25
2023-01-17T17:49:43.268Z,97296.41
2023-01-17T17:52:10.175Z,97288.09
2023-01-17T17:54:36.621Z,97287.81
2023-01-17T17:57:03.305Z,97298.97
2023-01-17T17:59:29.855Z,97289.81
2023-01-17T18:01:56.284Z,97296.03
2023-01-17T18:04:22.774Z,97285.63
2023-01-17T18:06:49.137Z,97288.28
2023-01-17T18:09:16.082Z,97299.09
2023-01-17T18:11:43.646Z,97288.97
2023-01-17T18:14:14.275Z,97290.00
2023-01-17T18:16:43.111Z,97299.34
2023-01-17T18:19:15.598Z,97292.00
2023-01-17T18:21:42.899Z,97304.06
2023-01-17T18:24:14.496Z,97291.69
2023-01-17T18:26:49.899Z,97291.00
2023-01-17T18:29:18.097Z,97301.78
2023-01-17T18:31:45.682Z,97297.56
2023-01-17T18:34:15.157Z,97287.19
2023-01-17T18:36:42.996Z,97289.75
2023-01-17T18:39:15.433Z,97297.59
2023-01-17T18:41:42.373Z,97301.84
2023-01-17T18:44:09.189Z,97300.56
2023-01-17T18:46:36.207Z,97311.06
2023-01-17T18:49:04.211Z,97307.50
2023-01-17T18:51:32.552Z,97312.88
2023-01-17T18:54:02.857Z,97314.34
2023-01-17T18:56:34.357Z,97319.25
2023-01-17T18:59:02.311Z,97312.75
2023-01-17T19:01:33.632Z,97312.94
2023-01-17T19:04:02.571Z,97319.31
2023-01-17T19:06:32.457Z,97330.09
2023-01-17T19:08:59.531Z,97317.03
2023-01-17T19:11:27.599Z,97317.56
2023-01-17T19:13:54.469Z,97319.97
2023-01-17T19:16:28.067Z,97315.41
2023-01-17T19:18:56.625Z,97312.66
2023-01-17T19:21:25.380Z,97321.94
2023-01-17T19:23:52.208Z,97334.69
2023-01-17T19:26:20.210Z,97336.66
2023-01-17T19:28:50.134Z,97329.13
2023-01-17T19:31:23.010Z,97322.44
2023-01-17T19:33:52.146Z,97339.09
2023-01-17T19:36:21.116Z,97330.13
2023-01-17T19:39:03.046Z,97337.31
2023-01-17T19:41:31.205Z,97333.22
2023-01-17T19:44:00.239Z,97338.28
2023-01-17T19:46:27.590Z,97335.34
2023-01-17T19:48:55.569Z,97333.38
2023-01-17T19:51:23.072Z,97337.94
2023-01-17T19:53:49.667Z,97336.97
2023-01-17T19:56:23.603Z,97333.53
2023-01-17T19:58:50.405Z,97342.00
2023-01-17T20:01:22.123Z,97352.94
2023-01-17T20:03:49.563Z,97345.25
2023-01-17T20:06:18.893Z,97350.63
2023-01-17T20:08:45.706Z,97342.16
2023-01-17T20:11:15.586Z,97349.50
2023-01-17T20:13:42.075Z,97358.78
2023-01-17T20:16:11.334Z,97365.28
2023-01-17T20:18:38.566Z,97379.28
2023-01-17T20:21:07.548Z,97375.06
2023-01-17T20:23:38.784Z,97376.56
2023-01-17T20:26:06.109Z,97383.53
2023-01-17T20:28:34.302Z,97376.31
2023-01-17T20:31:24.004Z,97382.88
2023-01-17T20:33:54.087Z,97387.06
2023-01-17T20:36:22.696Z,97391.59
2023-01-17T20:38:49.355Z,97393.34
2023-01-17T20:41:24.977Z,97390.69
2023-01-17T20:43:53.960Z,97394.47
2023-01-17T20:46:23.038Z,97396.41
2023-01-17T20:48:51.524Z,97393.16
2023-01-17T20:51:19.084Z,97396.72
2023-01-17T20:53:46.849Z,97393.16
2023-01-17T20:56:14.988Z,97398.53
2023-01-17T20:58:41.927Z,97403.28
2023-01-17T21:01:10.271Z,97396.41
2023-01-17T21:03:37.845Z,97397.34
2023-01-17T21:06:13.831Z,97391.13
2023-01-17T21:08:42.643Z,97388.91
2023-01-17T21:11:12.320Z,97392.13
2023-01-17T21:13:39.244Z,97389.41
2023-01-17T21:16:08.135Z,97382.44
2023-01-17T21:18:35.053Z,97381.06
2023-01-17T21:21:13.207Z,97386.91
2023-01-17T21:23:41.297Z,97395.06
2023-01-17T21:26:10.817Z,97395.22
2023-01-17T21:28:59.376Z,97398.75
2023-01-17T21:31:28.540Z,97397.63
2023-01-17T21:33:57.363Z,97391.75
2023-01-17T21:36:28.926Z,97392.06
2023-01-17T21:38:57.510Z,97379.69
2023-01-17T21:41:28.924Z,97387.97
2023-01-17T21:44:00.670Z,97387.22
2023-01-17T21:46:28.999Z,97385.03
2023-01-17T21:48:57.545Z,97388.44
2023-01-17T21:51:24.319Z,97387.47
2023-01-17T21:53:50.788Z,97391.28
2023-01-17T21:56:36.001Z,97388.28
2023-01-17T21:59:02.383Z,97375.88
2023-01-17T22:01:32.002Z,97375.69
2023-01-17T22:04:06.644Z,97371.91
2023-01-17T22:06:39.283Z,97368.66
2023-01-17T22:09:05.836Z,97360.53
2023-01-17T22:11:32.549Z,97360.19
2023-01-17T22:13:59.488Z,97357.56
2023-01-17T22:16:26.117Z,97356.53
2023-01-17T22:18:52.704Z,97355.28
2023-01-17T22:21:28.704Z,97350.38
2023-01-17T22:23:59.513Z,97352.31
2023-01-17T22:26:28.947Z,97347.75
2023-01-17T22:28:55.841Z,97351.63
2023-01-17T22:31:24.806Z,97344.53
2023-01-17T22:33:59.573Z,97336.75
2023-01-17T22:36:26.695Z,97334.78
2023-01-17T22:38:53.151Z,97338.75
2023-01-17T22:41:25.301Z,97336.75
2023-01-17T22:43:53.766Z,97329.88
2023-01-17T22:46:25.881Z,97329.72
2023-01-17T22:48:53.722Z,97335.09
2023-01-17T22:51:22.283Z,97329.22
2023-01-17T22:53:51.038Z,97329.53
2023-01-17T22:56:19.756Z,97324.84
2023-01-17T22:58:48.067Z,97315.69
2023-01-17T23:01:25.102Z,97310.00
2023-01-17T23:03:54.597Z,97308.06
2023-01-17T23:06:25.547Z,97311.41
2023-01-17T23:09:20.235Z,97304.53
2023-01-17T23:11:49.678Z,97301.94
2023-01-17T23:14:21.320Z,97286.78
2023-01-17T23:17:21.021Z,97286.44
2023-01-17T23:19:50.874Z,97277.84
2023-01-17T23:22:26.893Z,97272.63
2023-01-17T23:25:02.284Z,97279.78
2023-01-17T23:28:02.221Z,97281.81
2023-01-17T23:30:34.378Z,97283.94
2023-01-17T23:33:04.489Z,97291.06
2023-01-17T23:35:34.234Z,97292.59
2023-01-17T23:38:19.526Z,97298.63
2023-01-17T23:41:04.846Z,97285.47
2023-01-17T23:43:32.067Z,97280.47
2023-01-17T23:45:58.724Z,97280.47
2023-01-17T23:48:28.546Z,97280.16
2023-01-17T23:50:59.607Z,97289.94
2023-01-17T23:53:27.371Z,97287.66
2023-01-17T23:55:55.866Z,97286.94
2023-01-17T23:58:24.487Z,97283.91
